Maimiti — PBIJ — position and weather

sailwx.info

Track history (hours):
 
Tides and Currents Weather Stations Pressure Air Temp Water Temp Dewpoint Dewpoint Depression Visibility Wind Speed Wind Dir Waves Ship Positions

Maimiti

Last reported at 2014-Oct-26 02:33 UTC. Time now 2014-Oct-26 03:07 UTC.
Position N 52°33' E 001°45'.

Length 87 m; draft 4.9 m.

Type: Cargo ship. MMSI: 244312000.

Date/timePositionNaut miles runAvg speedWind from/ knotsBaromVisibWave heightAir tempDewpointWater temp
2014-Oct-26 02:33N 52°33' E 001°45'0 0.0
2014-Oct-26 01:33N 52°33' E 001°45'4 4.3
2014-Oct-26 00:33N 52°33' E 001°52'12310.2
2014-Oct-25 12:33N 53°32' E 004°52'1111.2
2014-Oct-25 11:33N 53°35' E 005°10'1110.7
2014-Oct-25 10:33N 53°38' E 005°27'1010.0
2014-Oct-25 09:33N 53°42' E 005°43'6510.1
2014-Oct-25 03:09N 53°60' E 007°29'710.9
2014-Oct-25 02:33N 54°01' E 007°39'1110.8
2014-Oct-25 01:33N 54°02' E 007°58'1010.3
2014-Oct-25 00:33N 54°01' E 008°15'1010.1
2014-Oct-24 23:33N 53°58' E 008°32'8 8.2
2014-Oct-24 22:33N 53°53' E 008°42'8 7.6
2014-Oct-24 21:33N 53°51' E 008°55'1210.8
2014-Oct-24 20:29N 53°53' E 009°14'1612.6
2014-Oct-24 19:14N 53°40' E 009°31'812.7
2014-Oct-24 18:33N 53°34' E 009°40'1110.6
2014-Oct-24 17:33N 53°31' E 009°57'0 0.5
2014-Oct-24 16:33N 53°30' E 009°58'0 0.0
2014-Oct-24 15:33N 53°30' E 009°58'0 0.0
2014-Oct-24 14:33N 53°30' E 009°58'0 0.0
2014-Oct-24 13:33N 53°30' E 009°58'0 0.0
2014-Oct-24 12:33N 53°30' E 009°58'0 0.0
2014-Oct-24 11:33N 53°30' E 009°58'0 0.0
2014-Oct-24 10:33N 53°30' E 009°58'0 0.0
2014-Oct-24 09:33N 53°30' E 009°58'0 0.0
2014-Oct-24 08:33N 53°30' E 009°58'0 0.0
2014-Oct-24 07:33N 53°30' E 009°58'0 0.0
2014-Oct-24 06:33N 53°30' E 009°58'0 0.0
2014-Oct-24 05:33N 53°30' E 009°58'0 0.0
2014-Oct-24 04:33N 53°30' E 009°58'0 0.0
2014-Oct-24 03:33N 53°30' E 009°58'0 0.0
2014-Oct-24 02:33N 53°30' E 009°58'0 0.0
2014-Oct-24 01:33N 53°30' E 009°58'0 0.0
2014-Oct-24 00:33N 53°30' E 009°58'0 0.0
2014-Oct-23 23:33N 53°30' E 009°58'0 0.0
2014-Oct-23 22:33N 53°30' E 009°58'0 0.0
2014-Oct-23 21:33N 53°30' E 009°58'0 0.0
2014-Oct-23 20:33N 53°30' E 009°58'0 0.0
2014-Oct-23 19:33N 53°30' E 009°58'0 0.0
2014-Oct-23 18:33N 53°30' E 009°58'0 0.0
2014-Oct-23 17:33N 53°30' E 009°58'0 0.0
2014-Oct-23 16:33N 53°30' E 009°58'0 0.0
2014-Oct-23 15:33N 53°30' E 009°58'0 0.0
2014-Oct-23 14:33N 53°30' E 009°58'0 0.0
2014-Oct-23 13:33N 53°30' E 009°58'0 0.2
2014-Oct-23 12:33N 53°30' E 009°57'9 9.3
2014-Oct-23 11:33N 53°34' E 009°43'2912.7
2014-Oct-23 09:16N 53°52' E 009°05'913.1
2014-Oct-23 08:33N 53°50' E 008°50'1312.3
2014-Oct-23 07:32N 53°58' E 008°33'1712.5
2014-Oct-23 06:10N 53°58' E 008°04'6310.4
2014-Oct-23 00:08N 53°38' E 006°23'710.7
2014-Oct-22 23:31N 53°36' E 006°34'1111.6
2014-Oct-22 22:33N 53°30' E 006°49'8 7.8
2014-Oct-22 21:33N 53°24' E 006°57'5 5.2
2014-Oct-22 20:34N 53°19' E 007°02'0 0.0
2014-Oct-22 19:34N 53°19' E 007°02'0 0.0
2014-Oct-22 18:34N 53°19' E 007°02'0 0.0
2014-Oct-22 17:33N 53°19' E 007°02'0 0.1
2014-Oct-22 16:33N 53°19' E 007°02'0 0.0
2014-Oct-22 15:34N 53°19' E 007°02'0 0.0
2014-Oct-22 14:33N 53°19' E 007°02'0 0.0
2014-Oct-22 13:34N 53°19' E 007°02'0 0.0
2014-Oct-22 12:33N 53°19' E 007°02'0 0.0
2014-Oct-22 11:34N 53°19' E 007°02'0 0.0
2014-Oct-22 10:34N 53°19' E 007°02'0 0.2
2014-Oct-22 09:33N 53°19' E 007°02'0 0.0
2014-Oct-22 08:34N 53°19' E 007°02'0 0.0
2014-Oct-22 07:33N 53°19' E 007°02'0 0.0
2014-Oct-22 06:33N 53°19' E 007°02'0 0.1
2014-Oct-22 05:34N 53°19' E 007°02'0 0.0
2014-Oct-22 04:33N 53°19' E 007°02'0 0.1
2014-Oct-22 03:34N 53°19' E 007°01'0 0.1
2014-Oct-22 02:33N 53°19' E 007°02'0 0.1
2014-Oct-22 01:34N 53°19' E 007°02'0 0.1
2014-Oct-22 00:34N 53°19' E 007°02'0 0.0
2014-Oct-21 23:34N 53°19' E 007°02'0 0.0
2014-Oct-21 22:34N 53°19' E 007°02'0 0.0
2014-Oct-21 21:33N 53°19' E 007°02'0 0.0
2014-Oct-21 20:34N 53°19' E 007°02'0 0.0
2014-Oct-21 19:33N 53°19' E 007°02'0 0.0
2014-Oct-21 18:33N 53°19' E 007°02'0 0.0
2014-Oct-21 17:33N 53°19' E 007°02'0 0.0
2014-Oct-21 16:34N 53°19' E 007°02'0 0.0
2014-Oct-21 15:33N 53°19' E 007°02'0 0.1
2014-Oct-21 14:33N 53°19' E 007°02'0 0.0
2014-Oct-21 13:34N 53°19' E 007°01'0 0.0
2014-Oct-21 12:33N 53°19' E 007°01'0 0.0
2014-Oct-21 11:34N 53°19' E 007°01'0 0.0
2014-Oct-21 10:34N 53°19' E 007°02'0 0.0
2014-Oct-21 09:34N 53°19' E 007°02'0 0.1
2014-Oct-21 08:33N 53°19' E 007°02'0 0.0
2014-Oct-21 07:33N 53°19' E 007°02'0 0.0
2014-Oct-21 06:34N 53°19' E 007°02'0 0.0
2014-Oct-21 05:33N 53°19' E 007°02'0 0.0
2014-Oct-21 04:34N 53°19' E 007°02'0 0.1
2014-Oct-21 03:34N 53°19' E 007°01'0 0.0
2014-Oct-21 02:33N 53°19' E 007°01'0 0.0
2014-Oct-21 01:33N 53°19' E 007°01'0 0.0
2014-Oct-21 00:34N 53°19' E 007°01'0 0.0
2014-Oct-20 23:33N 53°19' E 007°01'0 0.0
2014-Oct-20 22:34N 53°19' E 007°02'0 0.1
2014-Oct-20 21:33N 53°19' E 007°02'0 0.1
2014-Oct-20 20:33N 53°19' E 007°02'0 0.0
2014-Oct-20 19:34N 53°19' E 007°02'0 0.0
2014-Oct-20 18:34N 53°19' E 007°02'0 0.2
2014-Oct-20 17:33N 53°19' E 007°02'3 3.4
2014-Oct-20 16:34N 53°19' E 006°56'1 1.1
2014-Oct-20 15:33N 53°19' E 006°55'0 0.0
2014-Oct-20 14:33N 53°19' E 006°55'0 0.0
2014-Oct-20 13:33N 53°19' E 006°55'0 0.0
2014-Oct-20 12:34N 53°19' E 006°55'0 0.0
2014-Oct-20 11:34N 53°19' E 006°55'0 0.0
2014-Oct-20 10:34N 53°19' E 006°55'0 0.0
2014-Oct-20 09:34N 53°19' E 006°55'0 0.0
2014-Oct-20 08:34N 53°19' E 006°55'0 0.0
2014-Oct-20 07:33N 53°19' E 006°55'0 0.0
2014-Oct-20 06:34N 53°19' E 006°55'0 0.0
2014-Oct-20 05:33N 53°19' E 006°55'0 0.0
2014-Oct-20 04:34N 53°19' E 006°55'0 0.0
2014-Oct-20 03:33N 53°19' E 006°55'0 0.0
2014-Oct-20 02:34N 53°19' E 006°55'0 0.0
2014-Oct-20 01:33N 53°19' E 006°55'0 0.0
2014-Oct-20 00:34N 53°19' E 006°55'0 0.0
2014-Oct-19 23:34N 53°19' E 006°55'0 0.0
2014-Oct-19 22:33N 53°19' E 006°55'0 0.0
2014-Oct-19 21:33N 53°19' E 006°55'0 0.0
2014-Oct-19 20:34N 53°19' E 006°55'0 0.0
2014-Oct-19 19:34N 53°19' E 006°55'0 0.0
2014-Oct-19 18:33N 53°19' E 006°55'0 0.0
2014-Oct-19 17:34N 53°19' E 006°55'0 0.0
2014-Oct-19 16:34N 53°19' E 006°55'0 0.0
2014-Oct-19 15:34N 53°19' E 006°55'0 0.0
2014-Oct-19 14:34N 53°19' E 006°55'0 0.0
2014-Oct-19 13:34N 53°19' E 006°55'0 0.0
2014-Oct-19 12:33N 53°19' E 006°55'0 0.0
2014-Oct-19 11:34N 53°19' E 006°55'0 0.0
2014-Oct-19 10:34N 53°19' E 006°55'0 0.0
2014-Oct-19 09:33N 53°19' E 006°54'1 1.2
2014-Oct-19 08:34N 53°19' E 006°56'2 2.4
2014-Oct-19 07:33N 53°21' E 006°59'1111.0
2014-Oct-19 06:34N 53°30' E 006°49'40 6.5
2014-Oct-19 00:23N 53°53' E 007°44'910.5
2014-Oct-18 23:34N 53°56' E 007°58'10 9.5
2014-Oct-18 22:33N 54°01' E 008°12'1111.3
2014-Oct-18 21:34N 53°59' E 008°31'10 9.7
2014-Oct-18 20:34N 53°53' E 008°44'8 8.5
2014-Oct-18 19:33N 53°51' E 008°58'7 6.1
2014-Oct-18 18:25N 53°54' E 009°09'1 1.5
2014-Oct-18 17:33N 53°55' E 009°10'23 7.1
2014-Oct-18 14:23N 54°12' E 009°34'6 7.8
2014-Oct-18 13:33N 54°18' E 009°41'4 3.7
2014-Oct-18 12:33N 54°20' E 009°45'7 7.2
2014-Oct-18 11:33N 54°20' E 009°57'2 2.3
2014-Oct-18 10:34N 54°21' E 010°01'5 4.7
2014-Oct-18 09:33N 54°22' E 010°09'5 5.1
2014-Oct-18 08:33N 54°26' E 010°14'1010.3
2014-Oct-18 07:33N 54°33' E 010°27'3510.5
2014-Oct-18 04:15N 54°32' E 011°27'811.1
2014-Oct-18 03:33N 54°29' E 011°40'95 8.5
2014-Oct-17 16:25N 54°01' E 014°14'7 8.5
2014-Oct-17 15:34N 53°53' E 014°16'9 9.3
2014-Oct-17 14:34N 53°46' E 014°24'1110.5
2014-Oct-17 13:33N 53°37' E 014°35'9 9.1
2014-Oct-17 12:34N 53°28' E 014°36'4 4.1
2014-Oct-17 11:34N 53°24' E 014°36'0 0.0
2014-Oct-17 10:34N 53°24' E 014°36'0 0.0
2014-Oct-17 09:34N 53°24' E 014°36'0 0.0
2014-Oct-17 08:34N 53°24' E 014°36'0 0.0
2014-Oct-17 07:33N 53°24' E 014°36'0 0.0
2014-Oct-17 06:34N 53°24' E 014°36'0 0.0
2014-Oct-17 05:34N 53°24' E 014°36'0 0.0
2014-Oct-17 04:33N 53°24' E 014°36'0 0.0
2014-Oct-17 03:34N 53°24' E 014°36'0 0.0
2014-Oct-17 02:34N 53°24' E 014°36'0 0.0
2014-Oct-17 01:34N 53°24' E 014°36'2 2.2
2014-Oct-17 00:34N 53°26' E 014°36'9 8.7
2014-Oct-16 23:34N 53°35' E 014°36'1110.6
2014-Oct-16 22:33N 53°44' E 014°26'10 9.6
2014-Oct-16 21:33N 53°52' E 014°17'8 7.7
2014-Oct-16 20:34N 53°59' E 014°15'1211.5
2014-Oct-16 19:32N 54°11' E 014°09'4310.9
2014-Oct-16 15:33N 54°54' E 014°15'1410.9
2014-Oct-16 14:18N 55°08' E 014°16'1110.7
2014-Oct-16 13:19N 55°18' E 014°22'  
Track history (hours):
 
Tides and Currents Weather Stations Pressure Air Temp Water Temp Dewpoint Dewpoint Depression Visibility Wind Speed Wind Dir Waves Ship Positions

Maimiti

Last reported at 2014-Oct-26 02:33 UTC. Time now 2014-Oct-26 03:07 UTC.
Position N 52°33' E 001°45'.

Length 87 m; draft 4.9 m.

Type: Cargo ship. MMSI: 244312000.

Date/timePositionNaut miles runAvg speedWind from/ knotsBaromVisibWave heightAir tempDewpointWater temp
2014-Oct-26 02:33N 52°33' E 001°45'0 0.0
2014-Oct-26 01:33N 52°33' E 001°45'4 4.3
2014-Oct-26 00:33N 52°33' E 001°52'12310.2
2014-Oct-25 12:33N 53°32' E 004°52'1111.2
2014-Oct-25 11:33N 53°35' E 005°10'1110.7
2014-Oct-25 10:33N 53°38' E 005°27'1010.0
2014-Oct-25 09:33N 53°42' E 005°43'6510.1
2014-Oct-25 03:09N 53°60' E 007°29'710.9
2014-Oct-25 02:33N 54°01' E 007°39'1110.8
2014-Oct-25 01:33N 54°02' E 007°58'1010.3
2014-Oct-25 00:33N 54°01' E 008°15'1010.1
2014-Oct-24 23:33N 53°58' E 008°32'8 8.2
2014-Oct-24 22:33N 53°53' E 008°42'8 7.6
2014-Oct-24 21:33N 53°51' E 008°55'1210.8
2014-Oct-24 20:29N 53°53' E 009°14'1612.6
2014-Oct-24 19:14N 53°40' E 009°31'812.7
2014-Oct-24 18:33N 53°34' E 009°40'1110.6
2014-Oct-24 17:33N 53°31' E 009°57'0 0.5
2014-Oct-24 16:33N 53°30' E 009°58'0 0.0
2014-Oct-24 15:33N 53°30' E 009°58'0 0.0
2014-Oct-24 14:33N 53°30' E 009°58'0 0.0
2014-Oct-24 13:33N 53°30' E 009°58'0 0.0
2014-Oct-24 12:33N 53°30' E 009°58'0 0.0
2014-Oct-24 11:33N 53°30' E 009°58'0 0.0
2014-Oct-24 10:33N 53°30' E 009°58'0 0.0
2014-Oct-24 09:33N 53°30' E 009°58'0 0.0
2014-Oct-24 08:33N 53°30' E 009°58'0 0.0
2014-Oct-24 07:33N 53°30' E 009°58'0 0.0
2014-Oct-24 06:33N 53°30' E 009°58'0 0.0
2014-Oct-24 05:33N 53°30' E 009°58'0 0.0
2014-Oct-24 04:33N 53°30' E 009°58'0 0.0
2014-Oct-24 03:33N 53°30' E 009°58'0 0.0
2014-Oct-24 02:33N 53°30' E 009°58'0 0.0
2014-Oct-24 01:33N 53°30' E 009°58'0 0.0
2014-Oct-24 00:33N 53°30' E 009°58'0 0.0
2014-Oct-23 23:33N 53°30' E 009°58'0 0.0
2014-Oct-23 22:33N 53°30' E 009°58'0 0.0
2014-Oct-23 21:33N 53°30' E 009°58'0 0.0
2014-Oct-23 20:33N 53°30' E 009°58'0 0.0
2014-Oct-23 19:33N 53°30' E 009°58'0 0.0
2014-Oct-23 18:33N 53°30' E 009°58'0 0.0
2014-Oct-23 17:33N 53°30' E 009°58'0 0.0
2014-Oct-23 16:33N 53°30' E 009°58'0 0.0
2014-Oct-23 15:33N 53°30' E 009°58'0 0.0
2014-Oct-23 14:33N 53°30' E 009°58'0 0.0
2014-Oct-23 13:33N 53°30' E 009°58'0 0.2
2014-Oct-23 12:33N 53°30' E 009°57'9 9.3
2014-Oct-23 11:33N 53°34' E 009°43'2912.7
2014-Oct-23 09:16N 53°52' E 009°05'913.1
2014-Oct-23 08:33N 53°50' E 008°50'1312.3
2014-Oct-23 07:32N 53°58' E 008°33'1712.5
2014-Oct-23 06:10N 53°58' E 008°04'6310.4
2014-Oct-23 00:08N 53°38' E 006°23'710.7
2014-Oct-22 23:31N 53°36' E 006°34'1111.6
2014-Oct-22 22:33N 53°30' E 006°49'8 7.8
2014-Oct-22 21:33N 53°24' E 006°57'5 5.2
2014-Oct-22 20:34N 53°19' E 007°02'0 0.0
2014-Oct-22 19:34N 53°19' E 007°02'0 0.0
2014-Oct-22 18:34N 53°19' E 007°02'0 0.0
2014-Oct-22 17:33N 53°19' E 007°02'0 0.1
2014-Oct-22 16:33N 53°19' E 007°02'0 0.0
2014-Oct-22 15:34N 53°19' E 007°02'0 0.0
2014-Oct-22 14:33N 53°19' E 007°02'0 0.0
2014-Oct-22 13:34N 53°19' E 007°02'0 0.0
2014-Oct-22 12:33N 53°19' E 007°02'0 0.0
2014-Oct-22 11:34N 53°19' E 007°02'0 0.0
2014-Oct-22 10:34N 53°19' E 007°02'0 0.2
2014-Oct-22 09:33N 53°19' E 007°02'0 0.0
2014-Oct-22 08:34N 53°19' E 007°02'0 0.0
2014-Oct-22 07:33N 53°19' E 007°02'0 0.0
2014-Oct-22 06:33N 53°19' E 007°02'0 0.1
2014-Oct-22 05:34N 53°19' E 007°02'0 0.0
2014-Oct-22 04:33N 53°19' E 007°02'0 0.1
2014-Oct-22 03:34N 53°19' E 007°01'0 0.1
2014-Oct-22 02:33N 53°19' E 007°02'0 0.1
2014-Oct-22 01:34N 53°19' E 007°02'0 0.1
2014-Oct-22 00:34N 53°19' E 007°02'0 0.0
2014-Oct-21 23:34N 53°19' E 007°02'0 0.0
2014-Oct-21 22:34N 53°19' E 007°02'0 0.0
2014-Oct-21 21:33N 53°19' E 007°02'0 0.0
2014-Oct-21 20:34N 53°19' E 007°02'0 0.0
2014-Oct-21 19:33N 53°19' E 007°02'0 0.0
2014-Oct-21 18:33N 53°19' E 007°02'0 0.0
2014-Oct-21 17:33N 53°19' E 007°02'0 0.0
2014-Oct-21 16:34N 53°19' E 007°02'0 0.0
2014-Oct-21 15:33N 53°19' E 007°02'0 0.1
2014-Oct-21 14:33N 53°19' E 007°02'0 0.0
2014-Oct-21 13:34N 53°19' E 007°01'0 0.0
2014-Oct-21 12:33N 53°19' E 007°01'0 0.0
2014-Oct-21 11:34N 53°19' E 007°01'0 0.0
2014-Oct-21 10:34N 53°19' E 007°02'0 0.0
2014-Oct-21 09:34N 53°19' E 007°02'0 0.1
2014-Oct-21 08:33N 53°19' E 007°02'0 0.0
2014-Oct-21 07:33N 53°19' E 007°02'0 0.0
2014-Oct-21 06:34N 53°19' E 007°02'0 0.0
2014-Oct-21 05:33N 53°19' E 007°02'0 0.0
2014-Oct-21 04:34N 53°19' E 007°02'0 0.1
2014-Oct-21 03:34N 53°19' E 007°01'0 0.0
2014-Oct-21 02:33N 53°19' E 007°01'0 0.0
2014-Oct-21 01:33N 53°19' E 007°01'0 0.0
2014-Oct-21 00:34N 53°19' E 007°01'0 0.0
2014-Oct-20 23:33N 53°19' E 007°01'0 0.0
2014-Oct-20 22:34N 53°19' E 007°02'0 0.1
2014-Oct-20 21:33N 53°19' E 007°02'0 0.1
2014-Oct-20 20:33N 53°19' E 007°02'0 0.0
2014-Oct-20 19:34N 53°19' E 007°02'0 0.0
2014-Oct-20 18:34N 53°19' E 007°02'0 0.2
2014-Oct-20 17:33N 53°19' E 007°02'3 3.4
2014-Oct-20 16:34N 53°19' E 006°56'1 1.1
2014-Oct-20 15:33N 53°19' E 006°55'0 0.0
2014-Oct-20 14:33N 53°19' E 006°55'0 0.0
2014-Oct-20 13:33N 53°19' E 006°55'0 0.0
2014-Oct-20 12:34N 53°19' E 006°55'0 0.0
2014-Oct-20 11:34N 53°19' E 006°55'0 0.0
2014-Oct-20 10:34N 53°19' E 006°55'0 0.0
2014-Oct-20 09:34N 53°19' E 006°55'0 0.0
2014-Oct-20 08:34N 53°19' E 006°55'0 0.0
2014-Oct-20 07:33N 53°19' E 006°55'0 0.0
2014-Oct-20 06:34N 53°19' E 006°55'0 0.0
2014-Oct-20 05:33N 53°19' E 006°55'0 0.0
2014-Oct-20 04:34N 53°19' E 006°55'0 0.0
2014-Oct-20 03:33N 53°19' E 006°55'0 0.0
2014-Oct-20 02:34N 53°19' E 006°55'0 0.0
2014-Oct-20 01:33N 53°19' E 006°55'0 0.0
2014-Oct-20 00:34N 53°19' E 006°55'0 0.0
2014-Oct-19 23:34N 53°19' E 006°55'0 0.0
2014-Oct-19 22:33N 53°19' E 006°55'0 0.0
2014-Oct-19 21:33N 53°19' E 006°55'0 0.0
2014-Oct-19 20:34N 53°19' E 006°55'0 0.0
2014-Oct-19 19:34N 53°19' E 006°55'0 0.0
2014-Oct-19 18:33N 53°19' E 006°55'0 0.0
2014-Oct-19 17:34N 53°19' E 006°55'0 0.0
2014-Oct-19 16:34N 53°19' E 006°55'0 0.0
2014-Oct-19 15:34N 53°19' E 006°55'0 0.0
2014-Oct-19 14:34N 53°19' E 006°55'0 0.0
2014-Oct-19 13:34N 53°19' E 006°55'0 0.0
2014-Oct-19 12:33N 53°19' E 006°55'0 0.0
2014-Oct-19 11:34N 53°19' E 006°55'0 0.0
2014-Oct-19 10:34N 53°19' E 006°55'0 0.0
2014-Oct-19 09:33N 53°19' E 006°54'1 1.2
2014-Oct-19 08:34N 53°19' E 006°56'2 2.4
2014-Oct-19 07:33N 53°21' E 006°59'1111.0
2014-Oct-19 06:34N 53°30' E 006°49'40 6.5
2014-Oct-19 00:23N 53°53' E 007°44'910.5
2014-Oct-18 23:34N 53°56' E 007°58'10 9.5
2014-Oct-18 22:33N 54°01' E 008°12'1111.3
2014-Oct-18 21:34N 53°59' E 008°31'10 9.7
2014-Oct-18 20:34N 53°53' E 008°44'8 8.5
2014-Oct-18 19:33N 53°51' E 008°58'7 6.1
2014-Oct-18 18:25N 53°54' E 009°09'1 1.5
2014-Oct-18 17:33N 53°55' E 009°10'23 7.1
2014-Oct-18 14:23N 54°12' E 009°34'6 7.8
2014-Oct-18 13:33N 54°18' E 009°41'4 3.7
2014-Oct-18 12:33N 54°20' E 009°45'7 7.2
2014-Oct-18 11:33N 54°20' E 009°57'2 2.3
2014-Oct-18 10:34N 54°21' E 010°01'5 4.7
2014-Oct-18 09:33N 54°22' E 010°09'5 5.1
2014-Oct-18 08:33N 54°26' E 010°14'1010.3
2014-Oct-18 07:33N 54°33' E 010°27'3510.5
2014-Oct-18 04:15N 54°32' E 011°27'811.1
2014-Oct-18 03:33N 54°29' E 011°40'95 8.5
2014-Oct-17 16:25N 54°01' E 014°14'7 8.5
2014-Oct-17 15:34N 53°53' E 014°16'9 9.3
2014-Oct-17 14:34N 53°46' E 014°24'1110.5
2014-Oct-17 13:33N 53°37' E 014°35'9 9.1
2014-Oct-17 12:34N 53°28' E 014°36'4 4.1
2014-Oct-17 11:34N 53°24' E 014°36'0 0.0
2014-Oct-17 10:34N 53°24' E 014°36'0 0.0
2014-Oct-17 09:34N 53°24' E 014°36'0 0.0
2014-Oct-17 08:34N 53°24' E 014°36'0 0.0
2014-Oct-17 07:33N 53°24' E 014°36'0 0.0
2014-Oct-17 06:34N 53°24' E 014°36'0 0.0
2014-Oct-17 05:34N 53°24' E 014°36'0 0.0
2014-Oct-17 04:33N 53°24' E 014°36'0 0.0
2014-Oct-17 03:34N 53°24' E 014°36'0 0.0
2014-Oct-17 02:34N 53°24' E 014°36'0 0.0
2014-Oct-17 01:34N 53°24' E 014°36'2 2.2
2014-Oct-17 00:34N 53°26' E 014°36'9 8.7
2014-Oct-16 23:34N 53°35' E 014°36'1110.6
2014-Oct-16 22:33N 53°44' E 014°26'10 9.6
2014-Oct-16 21:33N 53°52' E 014°17'8 7.7
2014-Oct-16 20:34N 53°59' E 014°15'1211.5
2014-Oct-16 19:32N 54°11' E 014°09'4310.9
2014-Oct-16 15:33N 54°54' E 014°15'1410.9
2014-Oct-16 14:18N 55°08' E 014°16'1110.7
2014-Oct-16 13:19N 55°18' E 014°22'  

Dump ship's entire track history